メインページ
METAR-TAF:

METAR-TAF

空港 :

ロマン・トメトゥチェル国際空港

コロール, バベルダオブ島, パラオ

緯度: 07-22N, 経度: 134-32E, 海抜: 54m

現時点の気象観測

当レポートは47分前の00:50(UTC)に作成
西/南西の風 9kt
気温 29°C
湿度 74%
気圧 1012 hPa
視程: 24.1km
高度1500ftの千切れ雲あり, 塔状積雲.
高度12000ftの千切れ雲あり
高度30000ftの千切れ雲あり

METAR: PTRO 160050Z 24009KT 15SM BKN015TCU BKN120 BKN300 29/24 A2987 RMK TCU ALQDS

時間: 10:37 (01:37 UTC)

予報

当レポートは2時間2分前の23:35(UTC)に作成
予報は16日の 00時(UTC)から 16日の 24時(UTC)まで有効
南西の風 6kt
視程: 10km
高度1600ftの雲は散在している
高度12000ftの千切れ雲あり
近辺でにわか雨

TAF: PTRO 152335Z 1600/1624 23006KT P6SM VCSH SCT016 BKN120

4,000以上の空港の気象観測と天気予報(METAR報とTAF報)

利用可能な観測所は地図上に黄色い丸と赤い丸で示す。

丸の上にカーソルを重ねると観測所名を参照できる。

次にクリックすると気象観測と天気予報を参照できる。

マップの切り替え:黒色「×」印の緑ボタンをクリックして拡大、「-」印の緑ボタンをクリックして縮小、緑色の三角印をクリックして隣りの地図に切り替え


METAR-TAF: